Monday, March 30, 2015
20:06 UTC
  |  Log In   |  Register Free
Airport Search:

Ormond Beach Municipal Airport
(KOMN)

FAA data valid effective March 05, 2015 - April 30, 2015 (unless otherwise noted).

 
 
 
 
 
 
 
 
 
 
 
 
 
 

Current Aviation Weather for Ormond Beach Municipal Airport (KOMN)

The most recent METAR observation for KOMN was updated at: 1958
METAR Summary (Translated METAR)
KOMN
301850Z 33008KT 10SM SKC 23/09 A3020
KDAB
301853Z 36007KT 10SM FEW055 FEW200 25/07 A3022 RMK AO2 SLP233 T02500072
(7.8 nm SE from KOMN)
KFIN
301950Z 27005KT 7SM CLR 25/019 A3016
(11.1 nm NW from KOMN)
TAF Summary (Translated TAF)
KDAB
(7.8 nm SE from KOMN)
301730Z 3018/3118 23007KT P6SM SKC FM310200 28004KT P6SM SCT050 SCT250
  Airport Weather Conditions for KOMN

 Current Weather at OMN
72° F
Clear
West winds at 5.8 mph
OMN NOAA Radar

Pressure: 30.26 in
Humidity: 33%
Wind: West at 5.8 MPH (5 KT)
Dew Point: 41.0°F
Visibility: 10.00 mi


Airport Weather Forecast for KOMN

Translated METAR and TAF for KOMN
Translated METAR for KOMN (2005 UTC 30 March 2015)
found at http://aviationweather.gov/adds/metars/
 
METAR text: KOMN 301850Z 33008KT 10SM SKC 23/09 A3020
Conditions at: KOMN (ORMOND BEACH VOR, FL, US) observed 1850 UTC 30 March 2015
Temperature: 23.0°C (73°F)
Dewpoint: 9.0°C (48°F) [RH = 41%]
Pressure (altimeter): 30.20 inches Hg (1022.8 mb)
Winds: from the NNW (330 degrees) at 9 MPH (8 knots; 4.2 m/s)
Visibility: 10 or more miles (16+ km)
Ceiling: at least 12,000 feet AGL
Clouds: clear skies
Weather: no significant weather observed at this time
Translated TAF for KOMN

There is no translated TAF available for this airport

Find All Airport Services Find A Hotel Find A Rental Car Find A Golf Course Find A Restaurant $100 Hamburger



FBO's on the Field
FBO Company Facility Photos Services Transportation Aviation Fuel Prices: Prices include tax
Catering Weather Repair Courtesy Rental Type 100LL JetA JetA+ MOGAS 8087
 
Sunrise Aviation

Currently rated 1.9 by 3 people
FS:Shell
Last Updated: Feb-25
Login to update fuel prices
SS:
Contact Sunrise AviationMore FBO Information
 
Add another FBO Facility Photos Catering Weather Repair Courtesy Rental Type 100LL JetA JetA+ MOGAS 8087
Services Transportation Aviation Fuel Prices: Prices include tax


model-print
model-print
model-print
model-print